sensor_id;sensor_type;location;lat;lon;timestamp;pressure;altitude;pressure_sealevel;temperature;humidity
6938;BME280;40040;42.706;23.372;2023-10-13T00:02:03;147167.38;;;12.15;100.00
6938;BME280;40040;42.706;23.372;2023-10-13T00:04:31;147169.81;;;12.16;100.00
6938;BME280;40040;42.706;23.372;2023-10-13T00:07:01;147127.84;;;11.99;100.00
6938;BME280;40040;42.706;23.372;2023-10-13T00:09:29;147140.19;;;12.04;100.00
6938;BME280;40040;42.706;23.372;2023-10-13T00:12:00;147127.84;;;11.99;100.00
6938;BME280;40040;42.706;23.372;2023-10-13T00:14:27;147130.28;;;12.00;100.00
6938;BME280;40040;42.706;23.372;2023-10-13T00:16:59;147113.00;;;11.93;100.00
6938;BME280;40040;42.706;23.372;2023-10-13T00:19:34;147127.84;;;11.99;100.00
6938;BME280;40040;42.706;23.372;2023-10-13T00:22:12;147117.94;;;11.95;100.00
6938;BME280;40040;42.706;23.372;2023-10-13T00:24:42;147115.50;;;11.94;100.00
6938;BME280;40040;42.706;23.372;2023-10-13T00:27:13;147109.31;;;11.91;100.00
6938;BME280;40040;42.706;23.372;2023-10-13T00:29:55;147095.69;;;11.86;100.00
6938;BME280;40040;42.706;23.372;2023-10-13T00:32:36;147082.09;;;11.80;100.00
6938;BME280;40040;42.706;23.372;2023-10-13T00:35:06;147078.41;;;11.79;100.00
6938;BME280;40040;42.706;23.372;2023-10-13T00:37:36;147077.22;;;11.78;100.00
6938;BME280;40040;42.706;23.372;2023-10-13T00:40:10;147074.72;;;11.77;100.00
6938;BME280;40040;42.706;23.372;2023-10-13T00:42:53;147066.06;;;11.74;100.00
6938;BME280;40040;42.706;23.372;2023-10-13T00:45:21;147063.63;;;11.73;100.00
6938;BME280;40040;42.706;23.372;2023-10-13T00:47:47;147056.22;;;11.70;100.00
6938;BME280;40040;42.706;23.372;2023-10-13T00:50:21;147054.97;;;11.69;100.00
6938;BME280;40040;42.706;23.372;2023-10-13T00:52:50;147053.72;;;11.69;100.00
6938;BME280;40040;42.706;23.372;2023-10-13T00:55:18;147057.44;;;11.70;100.00
6938;BME280;40040;42.706;23.372;2023-10-13T00:57:50;147056.22;;;11.70;100.00
6938;BME280;40040;42.706;23.372;2023-10-13T01:00:20;147053.72;;;11.69;100.00
6938;BME280;40040;42.706;23.372;2023-10-13T01:02:52;147036.38;;;11.62;100.00
6938;BME280;40040;42.706;23.372;2023-10-13T01:05:21;147054.97;;;11.69;100.00
6938;BME280;40040;42.706;23.372;2023-10-13T01:07:49;147040.09;;;11.63;100.00
6938;BME280;40040;42.706;23.372;2023-10-13T01:10:18;147045.09;;;11.65;100.00
6938;BME280;40040;42.706;23.372;2023-10-13T01:12:46;147041.34;;;11.64;100.00
6938;BME280;40040;42.706;23.372;2023-10-13T01:15:11;147031.44;;;11.60;100.00
6938;BME280;40040;42.706;23.372;2023-10-13T01:17:43;147020.34;;;11.55;100.00
6938;BME280;40040;42.706;23.372;2023-10-13T01:20:10;147024.06;;;11.57;100.00
6938;BME280;40040;42.706;23.372;2023-10-13T01:22:40;146987.03;;;11.42;100.00
6938;BME280;40040;42.706;23.372;2023-10-13T01:25:09;147015.41;;;11.53;100.00
6938;BME280;40040;42.706;23.372;2023-10-13T01:27:39;147003.06;;;11.48;100.00
6938;BME280;40040;42.706;23.372;2023-10-13T01:30:06;146964.78;;;11.32;100.00
6938;BME280;40040;42.706;23.372;2023-10-13T01:32:35;146967.25;;;11.33;100.00
6938;BME280;40040;42.706;23.372;2023-10-13T01:35:06;146977.13;;;11.38;100.00
6938;BME280;40040;42.706;23.372;2023-10-13T01:37:33;146973.44;;;11.36;100.00
6938;BME280;40040;42.706;23.372;2023-10-13T01:39:59;146969.75;;;11.34;100.00
6938;BME280;40040;42.706;23.372;2023-10-13T01:42:27;146945.03;;;11.24;100.00
6938;BME280;40040;42.706;23.372;2023-10-13T01:44:56;146874.69;;;10.96;100.00
6938;BME280;40040;42.706;23.372;2023-10-13T01:47:30;146922.84;;;11.15;100.00
6938;BME280;40040;42.706;23.372;2023-10-13T01:49:56;146931.47;;;11.19;100.00
6938;BME280;40040;42.706;23.372;2023-10-13T01:52:23;146925.28;;;11.16;100.00
6938;BME280;40040;42.706;23.372;2023-10-13T01:54:50;146914.19;;;11.12;100.00
6938;BME280;40040;42.706;23.372;2023-10-13T01:57:17;146922.84;;;11.15;100.00
6938;BME280;40040;42.706;23.372;2023-10-13T01:59:45;146899.38;;;11.06;100.00
6938;BME280;40040;42.706;23.372;2023-10-13T02:02:13;146901.84;;;11.07;100.00
6938;BME280;40040;42.706;23.372;2023-10-13T02:04:40;146894.41;;;11.04;100.00
6938;BME280;40040;42.706;23.372;2023-10-13T02:07:14;146890.72;;;11.02;100.00
6938;BME280;40040;42.706;23.372;2023-10-13T02:09:41;146846.31;;;10.84;100.00
6938;BME280;40040;42.706;23.372;2023-10-13T02:12:08;146875.94;;;10.96;100.00
6938;BME280;40040;42.706;23.372;2023-10-13T02:14:34;146866.06;;;10.92;100.00
6938;BME280;40040;42.706;23.372;2023-10-13T02:17:03;146801.88;;;10.66;100.00
6938;BME280;40040;42.706;23.372;2023-10-13T02:19:38;146717.97;;;10.32;100.00
6938;BME280;40040;42.706;23.372;2023-10-13T02:22:05;146831.50;;;10.78;100.00
6938;BME280;40040;42.706;23.372;2023-10-13T02:24:34;146826.56;;;10.76;100.00
6938;BME280;40040;42.706;23.372;2023-10-13T02:27:05;146833.94;;;10.79;100.00
6938;BME280;40040;42.706;23.372;2023-10-13T02:29:39;146826.56;;;10.76;100.00
6938;BME280;40040;42.706;23.372;2023-10-13T02:32:07;146830.25;;;10.78;100.00
6938;BME280;40040;42.706;23.372;2023-10-13T02:34:44;146831.50;;;10.78;100.00
6938;BME280;40040;42.706;23.372;2023-10-13T02:37:11;146766.09;;;10.52;100.00
6938;BME280;40040;42.706;23.372;2023-10-13T02:39:38;146819.16;;;10.73;100.00
6938;BME280;40040;42.706;23.372;2023-10-13T02:42:06;146819.16;;;10.73;100.00
6938;BME280;40040;42.706;23.372;2023-10-13T02:44:32;146778.44;;;10.57;100.00
6938;BME280;40040;42.706;23.372;2023-10-13T02:47:02;146822.88;;;10.75;100.00
6938;BME280;40040;42.706;23.372;2023-10-13T02:49:32;146820.41;;;10.74;100.00
6938;BME280;40040;42.706;23.372;2023-10-13T02:52:03;146796.94;;;10.64;100.00
6938;BME280;40040;42.706;23.372;2023-10-13T02:54:32;146824.09;;;10.75;100.00
6938;BME280;40040;42.706;23.372;2023-10-13T02:57:05;146814.22;;;10.71;100.00
6938;BME280;40040;42.706;23.372;2023-10-13T02:59:32;146810.53;;;10.70;100.00
6938;BME280;40040;42.706;23.372;2023-10-13T03:02:06;146779.66;;;10.57;100.00
6938;BME280;40040;42.706;23.372;2023-10-13T03:04:46;146785.84;;;10.60;100.00
6938;BME280;40040;42.706;23.372;2023-10-13T03:07:13;146789.56;;;10.61;100.00
6938;BME280;40040;42.706;23.372;2023-10-13T03:09:41;146768.59;;;10.53;100.00
6938;BME280;40040;42.706;23.372;2023-10-13T03:12:16;146735.25;;;10.39;100.00
6938;BME280;40040;42.706;23.372;2023-10-13T03:14:42;146755.00;;;10.47;100.00
6938;BME280;40040;42.706;23.372;2023-10-13T03:17:13;146746.38;;;10.44;100.00
6938;BME280;40040;42.706;23.372;2023-10-13T03:19:42;146737.75;;;10.40;100.00
6938;BME280;40040;42.706;23.372;2023-10-13T03:22:13;146729.09;;;10.37;100.00
6938;BME280;40040;42.706;23.372;2023-10-13T03:24:42;146722.91;;;10.34;100.00
6938;BME280;40040;42.706;23.372;2023-10-13T03:27:12;146690.88;;;10.21;100.00
6938;BME280;40040;42.706;23.372;2023-10-13T03:29:42;146700.75;;;10.25;100.00
6938;BME280;40040;42.706;23.372;2023-10-13T03:32:10;146647.66;;;10.03;100.00
6938;BME280;40040;42.706;23.372;2023-10-13T03:34:40;146676.03;;;10.15;100.00
6938;BME280;40040;42.706;23.372;2023-10-13T03:37:17;146683.47;;;10.18;100.00
6938;BME280;40040;42.706;23.372;2023-10-13T03:40:03;146669.91;;;10.12;100.00
6938;BME280;40040;42.706;23.372;2023-10-13T03:42:32;146646.41;;;10.03;100.00
6938;BME280;40040;42.706;23.372;2023-10-13T03:44:59;146661.28;;;10.09;100.00
6938;BME280;40040;42.706;23.372;2023-10-13T03:47:27;146624.19;;;9.94;100.00
6938;BME280;40040;42.706;23.372;2023-10-13T03:49:57;146634.06;;;9.98;100.00
6938;BME280;40040;42.706;23.372;2023-10-13T03:52:40;146600.78;;;9.84;100.00
6938;BME280;40040;42.706;23.372;2023-10-13T03:55:07;146610.69;;;9.88;100.00
6938;BME280;40040;42.706;23.372;2023-10-13T03:57:41;146624.19;;;9.94;100.00
6938;BME280;40040;42.706;23.372;2023-10-13T04:00:09;146636.53;;;9.99;100.00
6938;BME280;40040;42.706;23.372;2023-10-13T04:02:47;146636.53;;;9.99;100.00
6938;BME280;40040;42.706;23.372;2023-10-13T04:05:19;146643.97;;;10.02;100.00
6938;BME280;40040;42.706;23.372;2023-10-13T04:08:03;146646.41;;;10.03;100.00
6938;BME280;40040;42.706;23.372;2023-10-13T04:10:48;146634.06;;;9.98;100.00
6938;BME280;40040;42.706;23.372;2023-10-13T04:13:31;146642.72;;;10.01;100.00
6938;BME280;40040;42.706;23.372;2023-10-13T04:16:36;146646.41;;;10.03;100.00
6938;BME280;40040;42.706;23.372;2023-10-13T04:19:04;146597.09;;;9.83;100.00
6938;BME280;40040;42.706;23.372;2023-10-13T04:21:35;146629.13;;;9.96;100.00
6938;BME280;40040;42.706;23.372;2023-10-13T04:24:17;146631.63;;;9.97;100.00
6938;BME280;40040;42.706;23.372;2023-10-13T04:27:04;146626.69;;;9.95;100.00
6938;BME280;40040;42.706;23.372;2023-10-13T04:29:59;146624.19;;;9.94;100.00
6938;BME280;40040;42.706;23.372;2023-10-13T04:32:37;146621.75;;;9.93;100.00
6938;BME280;40040;42.706;23.372;2023-10-13T04:35:11;146619.31;;;9.92;100.00
6938;BME280;40040;42.706;23.372;2023-10-13T04:37:44;146594.59;;;9.82;100.00
6938;BME280;40040;42.706;23.372;2023-10-13T04:40:19;146616.81;;;9.91;100.00
6938;BME280;40040;42.706;23.372;2023-10-13T04:42:50;146604.47;;;9.86;100.00
6938;BME280;40040;42.706;23.372;2023-10-13T04:45:17;146587.22;;;9.79;100.00
6938;BME280;40040;42.706;23.372;2023-10-13T04:48:05;146604.47;;;9.86;100.00
6938;BME280;40040;42.706;23.372;2023-10-13T04:50:45;146592.16;;;9.81;100.00
6938;BME280;40040;42.706;23.372;2023-10-13T04:53:13;146572.41;;;9.73;100.00
6938;BME280;40040;42.706;23.372;2023-10-13T04:55:57;146566.25;;;9.70;100.00
6938;BME280;40040;42.706;23.372;2023-10-13T04:58:54;146587.22;;;9.79;100.00
6938;BME280;40040;42.706;23.372;2023-10-13T05:01:38;146550.25;;;9.64;100.00
6938;BME280;40040;42.706;23.372;2023-10-13T05:04:21;146572.41;;;9.73;100.00
6938;BME280;40040;42.706;23.372;2023-10-13T05:07:03;146579.84;;;9.76;100.00
6938;BME280;40040;42.706;23.372;2023-10-13T05:09:47;146584.78;;;9.78;100.00
6938;BME280;40040;42.706;23.372;2023-10-13T05:12:38;146582.28;;;9.77;100.00
6938;BME280;40040;42.706;23.372;2023-10-13T05:15:22;146587.22;;;9.79;100.00
6938;BME280;40040;42.706;23.372;2023-10-13T05:18:06;146589.66;;;9.80;100.00
6938;BME280;40040;42.706;23.372;2023-10-13T05:20:55;146561.34;;;9.68;100.00
6938;BME280;40040;42.706;23.372;2023-10-13T05:23:39;146574.91;;;9.74;100.00
6938;BME280;40040;42.706;23.372;2023-10-13T05:26:23;146604.47;;;9.86;100.00
6938;BME280;40040;42.706;23.372;2023-10-13T05:29:09;146626.69;;;9.95;100.00
6938;BME280;40040;42.706;23.372;2023-10-13T05:31:53;146643.97;;;10.02;100.00
6938;BME280;40040;42.706;23.372;2023-10-13T05:34:37;146614.38;;;9.90;100.00
6938;BME280;40040;42.706;23.372;2023-10-13T05:37:22;146666.22;;;10.11;100.00
6938;BME280;40040;42.706;23.372;2023-10-13T05:40:07;146690.88;;;10.21;100.00
6938;BME280;40040;42.706;23.372;2023-10-13T05:42:52;146710.59;;;10.29;100.00
6938;BME280;40040;42.706;23.372;2023-10-13T05:45:37;146685.94;;;10.19;100.00
6938;BME280;40040;42.706;23.372;2023-10-13T05:48:26;146755.00;;;10.47;100.00
6938;BME280;40040;42.706;23.372;2023-10-13T05:51:08;146747.63;;;10.44;100.00
6938;BME280;40040;42.706;23.372;2023-10-13T05:53:52;146799.38;;;10.65;100.00
6938;BME280;40040;42.706;23.372;2023-10-13T05:56:36;146831.50;;;10.78;100.00
6938;BME280;40040;42.706;23.372;2023-10-13T05:59:20;146819.16;;;10.73;100.00
6938;BME280;40040;42.706;23.372;2023-10-13T06:02:06;146883.34;;;10.99;100.00
6938;BME280;40040;42.706;23.372;2023-10-13T06:04:56;146788.31;;;10.61;100.00
6938;BME280;40040;42.706;23.372;2023-10-13T06:07:40;146750.06;;;10.45;100.00
6938;BME280;40040;42.706;23.372;2023-10-13T06:10:25;146789.56;;;10.61;100.00
6938;BME280;40040;42.706;23.372;2023-10-13T06:13:08;146868.50;;;10.93;100.00
6938;BME280;40040;42.706;23.372;2023-10-13T06:15:53;146894.41;;;11.04;100.00
6938;BME280;40040;42.706;23.372;2023-10-13T06:18:38;146920.34;;;11.14;100.00
6938;BME280;40040;42.706;23.372;2023-10-13T06:21:22;146947.50;;;11.25;100.00
6938;BME280;40040;42.706;23.372;2023-10-13T06:24:06;146974.69;;;11.37;100.00
6938;BME280;40040;42.706;23.372;2023-10-13T06:26:51;147010.47;;;11.51;100.00
6938;BME280;40040;42.706;23.372;2023-10-13T06:29:36;147048.78;;;11.67;100.00
6938;BME280;40040;42.706;23.372;2023-10-13T06:32:03;147080.91;;;11.80;100.00
6938;BME280;40040;42.706;23.372;2023-10-13T06:34:37;147113.00;;;11.93;100.00
6938;BME280;40040;42.706;23.372;2023-10-13T06:37:10;147119.19;;;11.95;100.00
6938;BME280;40040;42.706;23.372;2023-10-13T06:39:48;147147.59;;;12.07;100.00
6938;BME280;40040;42.706;23.372;2023-10-13T06:42:15;147151.28;;;12.08;100.00
6938;BME280;40040;42.706;23.372;2023-10-13T06:44:45;147206.88;;;12.31;100.00
6938;BME280;40040;42.706;23.372;2023-10-13T06:47:12;147246.41;;;12.47;100.00
6938;BME280;40040;42.706;23.372;2023-10-13T06:49:41;147252.63;;;12.50;100.00
6938;BME280;40040;42.706;23.372;2023-10-13T06:52:09;147268.66;;;12.56;100.00
6938;BME280;40040;42.706;23.372;2023-10-13T06:54:36;147295.88;;;12.67;100.00
6938;BME280;40040;42.706;23.372;2023-10-13T06:57:04;147308.22;;;12.72;100.00
6938;BME280;40040;42.706;23.372;2023-10-13T06:59:32;147310.66;;;12.73;100.00
6938;BME280;40040;42.706;23.372;2023-10-13T07:02:02;147341.56;;;12.86;100.00
6938;BME280;40040;42.706;23.372;2023-10-13T07:04:30;147361.34;;;12.94;100.00
6938;BME280;40040;42.706;23.372;2023-10-13T07:06:59;147366.28;;;12.96;100.00
6938;BME280;40040;42.706;23.372;2023-10-13T07:09:27;147394.78;;;13.07;100.00
6938;BME280;40040;42.706;23.372;2023-10-13T07:12:07;147440.50;;;13.26;100.00
6938;BME280;40040;42.706;23.372;2023-10-13T07:14:45;147475.13;;;13.40;100.00
6938;BME280;40040;42.706;23.372;2023-10-13T07:17:17;147519.66;;;13.58;100.00
6938;BME280;40040;42.706;23.372;2023-10-13T07:19:50;147587.69;;;13.86;100.00
6938;BME280;40040;42.706;23.372;2023-10-13T07:22:21;147569.13;;;13.78;99.57
6938;BME280;40040;42.706;23.372;2023-10-13T07:24:50;147642.09;;;14.08;98.56
6938;BME280;40040;42.706;23.372;2023-10-13T07:27:18;147696.56;;;14.30;97.16
6938;BME280;40040;42.706;23.372;2023-10-13T07:29:50;147728.75;;;14.43;96.19
6938;BME280;40040;42.706;23.372;2023-10-13T07:32:23;147768.38;;;14.59;95.01
6938;BME280;40040;42.706;23.372;2023-10-13T07:34:54;147807.94;;;14.75;94.64
6938;BME280;40040;42.706;23.372;2023-10-13T07:37:37;147833.94;;;14.86;95.18
6938;BME280;40040;42.706;23.372;2023-10-13T07:40:07;147841.38;;;14.89;93.33
6938;BME280;40040;42.706;23.372;2023-10-13T07:42:48;147916.88;;;15.19;91.74
6938;BME280;40040;42.706;23.372;2023-10-13T07:45:15;147899.53;;;15.12;92.38
6938;BME280;40040;42.706;23.372;2023-10-13T07:47:50;147958.97;;;15.36;92.11
6938;BME280;40040;42.706;23.372;2023-10-13T07:50:17;148011.03;;;15.57;90.78
6938;BME280;40040;42.706;23.372;2023-10-13T07:52:51;148063.06;;;15.78;89.76
6938;BME280;40040;42.706;23.372;2023-10-13T07:55:30;148107.66;;;15.97;86.83
6938;BME280;40040;42.706;23.372;2023-10-13T07:57:59;148160.91;;;16.18;86.33
6938;BME280;40040;42.706;23.372;2023-10-13T08:00:33;148194.41;;;16.32;85.82
6938;BME280;40040;42.706;23.372;2023-10-13T08:03:12;148220.38;;;16.42;84.40
6938;BME280;40040;42.706;23.372;2023-10-13T08:05:57;148237.78;;;16.49;82.03
6938;BME280;40040;42.706;23.372;2023-10-13T08:08:32;148338.19;;;16.90;80.54
6938;BME280;40040;42.706;23.372;2023-10-13T08:11:04;148379.13;;;17.07;80.55
6938;BME280;40040;42.706;23.372;2023-10-13T08:13:50;148406.38;;;17.18;79.38
6938;BME280;40040;42.706;23.372;2023-10-13T08:16:19;148386.56;;;17.10;78.11
6938;BME280;40040;42.706;23.372;2023-10-13T08:18:48;148539.09;;;17.71;78.90
6938;BME280;40040;42.706;23.372;2023-10-13T08:21:15;148572.63;;;17.85;76.00
6938;BME280;40040;42.706;23.372;2023-10-13T08:23:46;148591.22;;;17.92;73.82
6938;BME280;40040;42.706;23.372;2023-10-13T08:26:32;148613.56;;;18.02;75.10
6938;BME280;40040;42.706;23.372;2023-10-13T08:29:18;148603.59;;;17.97;74.30
6938;BME280;40040;42.706;23.372;2023-10-13T08:32:03;148705.38;;;18.39;73.21
6938;BME280;40040;42.706;23.372;2023-10-13T08:34:47;148765.00;;;18.63;71.09
6938;BME280;40040;42.706;23.372;2023-10-13T08:37:35;148822.09;;;18.86;70.31
6938;BME280;40040;42.706;23.372;2023-10-13T08:40:13;148871.75;;;19.06;68.63
6938;BME280;40040;42.706;23.372;2023-10-13T08:43:06;148943.84;;;19.35;67.07
6938;BME280;40040;42.706;23.372;2023-10-13T08:45:38;149032.00;;;19.71;65.67
6938;BME280;40040;42.706;23.372;2023-10-13T08:48:24;149145.09;;;20.17;65.42
6938;BME280;40040;42.706;23.372;2023-10-13T08:50:58;149087.88;;;19.93;64.05
6938;BME280;40040;42.706;23.372;2023-10-13T08:53:36;149196.03;;;20.37;63.11
6938;BME280;40040;42.706;23.372;2023-10-13T08:56:12;149232.09;;;20.52;63.72
6938;BME280;40040;42.706;23.372;2023-10-13T08:58:44;149309.16;;;20.83;61.43
6938;BME280;40040;42.706;23.372;2023-10-13T09:01:33;149406.16;;;21.22;60.87
6938;BME280;40040;42.706;23.372;2023-10-13T09:04:12;149518.06;;;21.67;58.97
6938;BME280;40040;42.706;23.372;2023-10-13T09:06:49;149443.47;;;21.37;58.51
6938;BME280;40040;42.706;23.372;2023-10-13T09:09:31;149612.69;;;22.05;57.26
6938;BME280;40040;42.706;23.372;2023-10-13T09:12:12;149774.50;;;22.71;56.76
6938;BME280;40040;42.706;23.372;2023-10-13T09:14:39;149889.03;;;23.17;53.94
6938;BME280;40040;42.706;23.372;2023-10-13T09:17:11;149847.94;;;23.00;53.40
6938;BME280;40040;42.706;23.372;2023-10-13T09:19:48;149819.31;;;22.89;53.74
6938;BME280;40040;42.706;23.372;2023-10-13T09:22:25;149698.53;;;22.40;54.96
6938;BME280;40040;42.706;23.372;2023-10-13T09:24:54;149806.88;;;22.84;54.97
6938;BME280;40040;42.706;23.372;2023-10-13T09:27:27;149923.91;;;23.31;53.72
6938;BME280;40040;42.706;23.372;2023-10-13T09:29:57;149961.28;;;23.46;52.92
6938;BME280;40040;42.706;23.372;2023-10-13T09:32:26;150042.22;;;23.79;51.42
6938;BME280;40040;42.706;23.372;2023-10-13T09:35:00;150210.44;;;24.46;50.01
6938;BME280;40040;42.706;23.372;2023-10-13T09:37:27;150272.81;;;24.72;48.73
6938;BME280;40040;42.706;23.372;2023-10-13T09:39:59;150365.06;;;25.09;48.42
6938;BME280;40040;42.706;23.372;2023-10-13T09:42:32;150449.88;;;25.43;47.40
6938;BME280;40040;42.706;23.372;2023-10-13T09:45:01;150517.19;;;25.70;46.36
6938;BME280;40040;42.706;23.372;2023-10-13T09:47:31;150573.31;;;25.93;46.03
6938;BME280;40040;42.706;23.372;2023-10-13T09:50:03;150582.03;;;25.96;45.21
6938;BME280;40040;42.706;23.372;2023-10-13T09:52:31;150676.88;;;26.34;44.93
6938;BME280;40040;42.706;23.372;2023-10-13T09:55:23;150600.81;;;26.04;44.86
6938;BME280;40040;42.706;23.372;2023-10-13T09:58:00;150622.00;;;26.12;44.94
6938;BME280;40040;42.706;23.372;2023-10-13T10:00:36;150602.06;;;26.04;44.83
6938;BME280;40040;42.706;23.372;2023-10-13T10:03:15;150613.28;;;26.09;44.01
6938;BME280;40040;42.706;23.372;2023-10-13T10:05:56;150573.31;;;25.93;46.09
6938;BME280;40040;42.706;23.372;2023-10-13T10:08:29;150708.09;;;26.47;45.32
6938;BME280;40040;42.706;23.372;2023-10-13T10:11:21;150817.97;;;26.91;42.90
6938;BME280;40040;42.706;23.372;2023-10-13T10:14:04;150836.69;;;26.99;43.13
6938;BME280;40040;42.706;23.372;2023-10-13T10:16:43;150889.13;;;27.20;43.06
6938;BME280;40040;42.706;23.372;2023-10-13T10:19:12;150884.13;;;27.18;42.25
6938;BME280;40040;42.706;23.372;2023-10-13T10:21:39;150879.13;;;27.16;43.07
6938;BME280;40040;42.706;23.372;2023-10-13T10:24:21;150927.88;;;27.35;41.52
6938;BME280;40040;42.706;23.372;2023-10-13T10:26:55;150905.34;;;27.26;41.74
6938;BME280;40040;42.706;23.372;2023-10-13T10:29:23;150939.09;;;27.40;43.11
6938;BME280;40040;42.706;23.372;2023-10-13T10:31:50;150956.56;;;27.47;41.35
6938;BME280;40040;42.706;23.372;2023-10-13T10:34:17;151009.00;;;27.68;38.92
6938;BME280;40040;42.706;23.372;2023-10-13T10:36:53;151131.44;;;28.17;38.64
6938;BME280;40040;42.706;23.372;2023-10-13T10:39:20;151168.91;;;28.32;38.21
6938;BME280;40040;42.706;23.372;2023-10-13T10:42:08;151326.38;;;28.96;38.13
6938;BME280;40040;42.706;23.372;2023-10-13T10:44:42;151433.88;;;29.39;36.73
6938;BME280;40040;42.706;23.372;2023-10-13T10:47:10;151482.63;;;29.58;35.76
6938;BME280;40040;42.706;23.372;2023-10-13T10:49:45;151553.91;;;29.87;37.38
6938;BME280;40040;42.706;23.372;2023-10-13T10:52:12;151600.19;;;30.06;37.05
6938;BME280;40040;42.706;23.372;2023-10-13T10:54:44;151657.75;;;30.29;34.03
6938;BME280;40040;42.706;23.372;2023-10-13T10:57:17;151731.53;;;30.58;34.79
6938;BME280;40040;42.706;23.372;2023-10-13T10:59:45;151749.03;;;30.65;34.35
6938;BME280;40040;42.706;23.372;2023-10-13T11:02:12;151792.88;;;30.83;33.54
6938;BME280;40040;42.706;23.372;2023-10-13T11:04:43;151819.13;;;30.93;33.91
6938;BME280;40040;42.706;23.372;2023-10-13T11:07:23;151865.47;;;31.12;33.74
6938;BME280;40040;42.706;23.372;2023-10-13T11:09:51;151880.44;;;31.18;32.36
6938;BME280;40040;42.706;23.372;2023-10-13T11:12:32;151856.69;;;31.09;33.01
6938;BME280;40040;42.706;23.372;2023-10-13T11:15:02;151861.66;;;31.11;32.57
6938;BME280;40040;42.706;23.372;2023-10-13T11:17:31;151900.44;;;31.26;30.83
6938;BME280;40040;42.706;23.372;2023-10-13T11:20:17;151961.81;;;31.51;30.17
6938;BME280;40040;42.706;23.372;2023-10-13T11:22:51;151986.88;;;31.61;30.72
6938;BME280;40040;42.706;23.372;2023-10-13T11:25:23;152025.69;;;31.76;30.64
6938;BME280;40040;42.706;23.372;2023-10-13T11:27:55;152125.88;;;32.17;29.53
6938;BME280;40040;42.706;23.372;2023-10-13T11:30:26;152207.28;;;32.49;27.92
6938;BME280;40040;42.706;23.372;2023-10-13T11:33:07;152267.38;;;32.73;27.51
6938;BME280;40040;42.706;23.372;2023-10-13T11:35:35;152252.38;;;32.67;28.45
6938;BME280;40040;42.706;23.372;2023-10-13T11:38:23;152054.50;;;31.88;28.45
6938;BME280;40040;42.706;23.372;2023-10-13T11:40:54;152021.91;;;31.75;29.40
6938;BME280;40040;42.706;23.372;2023-10-13T11:43:37;152118.31;;;32.14;28.83
6938;BME280;40040;42.706;23.372;2023-10-13T11:46:20;152214.78;;;32.52;29.32
6938;BME280;40040;42.706;23.372;2023-10-13T11:49:02;152214.78;;;32.52;27.92
6938;BME280;40040;42.706;23.372;2023-10-13T11:51:39;152014.38;;;31.72;27.79
6938;BME280;40040;42.706;23.372;2023-10-13T11:54:10;151829.16;;;30.98;28.56
6938;BME280;40040;42.706;23.372;2023-10-13T11:56:37;151920.53;;;31.34;29.37
6938;BME280;40040;42.706;23.372;2023-10-13T11:59:04;151956.81;;;31.49;29.18
6938;BME280;40040;42.706;23.372;2023-10-13T12:01:32;151981.88;;;31.59;29.59
6938;BME280;40040;42.706;23.372;2023-10-13T12:04:13;152118.31;;;32.14;28.46
6938;BME280;40040;42.706;23.372;2023-10-13T12:07:06;152289.91;;;32.82;27.31
6938;BME280;40040;42.706;23.372;2023-10-13T12:09:43;152405.16;;;33.29;26.42
6938;BME280;40040;42.706;23.372;2023-10-13T12:12:29;152417.69;;;33.34;26.11
6938;BME280;40040;42.706;23.372;2023-10-13T12:14:57;152465.38;;;33.53;26.14
6938;BME280;40040;42.706;23.372;2023-10-13T12:17:35;152549.31;;;33.86;26.99
6938;BME280;40040;42.706;23.372;2023-10-13T12:20:06;152538.03;;;33.82;25.78
6938;BME280;40040;42.706;23.372;2023-10-13T12:22:35;152563.09;;;33.92;25.40
6938;BME280;40040;42.706;23.372;2023-10-13T12:25:05;152595.75;;;34.05;25.01
6938;BME280;40040;42.706;23.372;2023-10-13T12:27:45;152670.91;;;34.35;25.27
6938;BME280;40040;42.706;23.372;2023-10-13T12:30:14;152665.88;;;34.33;24.35
6938;BME280;40040;42.706;23.372;2023-10-13T12:32:49;152634.59;;;34.21;24.64
6938;BME280;40040;42.706;23.372;2023-10-13T12:35:31;152610.75;;;34.11;24.91
6938;BME280;40040;42.706;23.372;2023-10-13T12:38:00;152575.66;;;33.97;24.58
6938;BME280;40040;42.706;23.372;2023-10-13T12:40:31;152422.72;;;33.36;25.33
6938;BME280;40040;42.706;23.372;2023-10-13T12:43:16;152299.94;;;32.86;25.90
6938;BME280;40040;42.706;23.372;2023-10-13T12:46:00;152239.81;;;32.62;26.14
6938;BME280;40040;42.706;23.372;2023-10-13T12:48:45;152224.81;;;32.56;26.37
6938;BME280;40040;42.706;23.372;2023-10-13T12:51:43;152207.28;;;32.49;26.81
6938;BME280;40040;42.706;23.372;2023-10-13T12:54:19;152167.16;;;32.33;26.48
6938;BME280;40040;42.706;23.372;2023-10-13T12:56:49;152069.53;;;31.94;26.78
6938;BME280;40040;42.706;23.372;2023-10-13T12:59:22;151994.38;;;31.64;26.55
6938;BME280;40040;42.706;23.372;2023-10-13T13:01:52;151910.47;;;31.30;26.90
6938;BME280;40040;42.706;23.372;2023-10-13T13:04:20;151854.16;;;31.08;27.45
6938;BME280;40040;42.706;23.372;2023-10-13T13:06:48;151752.78;;;30.67;28.30
6938;BME280;40040;42.706;23.372;2023-10-13T13:09:15;151689.00;;;30.41;28.22
6938;BME280;40040;42.706;23.372;2023-10-13T13:11:51;151630.22;;;30.18;28.73
6938;BME280;40040;42.706;23.372;2023-10-13T13:14:22;151505.16;;;29.67;29.12
6938;BME280;40040;42.706;23.372;2023-10-13T13:16:54;151412.63;;;29.30;30.02
6938;BME280;40040;42.706;23.372;2023-10-13T13:19:31;151373.91;;;29.15;30.37
6938;BME280;40040;42.706;23.372;2023-10-13T13:22:01;151352.59;;;29.06;31.40
6938;BME280;40040;42.706;23.372;2023-10-13T13:24:29;151350.09;;;29.05;30.69